Time;durP1;ratioP1;P1;durP2;ratioP2;P2;SDS_P1;SDS_P2;PMS_P1;PMS_P2;Temp;Humidity;BMP_temperature;BMP_pressure;BME280_temperature;BME280_humidity;BME280_pressure;Samples;Min_cycle;Max_cycle;Signal;HPM_P1;HPM_P2
2024/04/11 00:00:49;;;;;;;0.30;0.20;;;15.20;99.90;;;;;;5512837;26;20223;-74
2024/04/11 00:03:16;;;;;;;0.30;0.20;;;15.20;99.90;;;;;;5515710;25;20606;-74
2024/04/11 00:05:42;;;;;;;1.43;0.93;;;15.10;99.90;;;;;;5516609;26;20429;-74
2024/04/11 00:08:08;;;;;;;0.97;0.97;;;15.10;99.90;;;;;;5514289;26;20503;-74
2024/04/11 00:10:33;;;;;;;0.53;0.53;;;15.10;99.90;;;;;;5516180;25;20500;-74
2024/04/11 00:12:59;;;;;;;1.17;0.97;;;15.10;99.90;;;;;;5515755;25;20688;-74
2024/04/11 00:15:24;;;;;;;0.60;0.60;;;15.00;99.90;;;;;;5516217;25;20262;-74
2024/04/11 00:17:50;;;;;;;1.33;1.23;;;15.00;99.90;;;;;;5515963;25;20713;-74
2024/04/11 00:20:16;;;;;;;0.57;0.57;;;15.00;99.90;;;;;;5514344;26;20693;-74
2024/04/11 00:22:41;;;;;;;0.30;0.20;;;14.90;99.90;;;;;;5515783;25;20350;-74
2024/04/11 00:25:07;;;;;;;1.80;1.70;;;14.70;99.90;;;;;;5516337;25;20263;-74
2024/04/11 00:27:33;;;;;;;1.17;1.07;;;14.70;99.90;;;;;;5516069;25;20684;-74
2024/04/11 00:29:59;;;;;;;0.60;0.60;;;14.70;99.90;;;;;;5514596;26;20308;-74
2024/04/11 00:32:25;;;;;;;0.73;0.73;;;14.70;99.90;;;;;;5513929;26;20855;-74
2024/04/11 00:34:50;;;;;;;0.30;0.20;;;14.70;99.90;;;;;;5514415;26;20708;-74
2024/04/11 00:37:16;;;;;;;0.40;0.30;;;14.70;99.90;;;;;;5515689;26;20231;-74
2024/04/11 00:39:42;;;;;;;1.30;1.10;;;14.70;99.90;;;;;;5516194;26;20335;-74
2024/04/11 00:42:08;;;;;;;0.30;0.20;;;14.70;99.90;;;;;;5515765;25;20651;-74
2024/04/11 00:44:36;;;;;;;0.30;0.20;;;14.70;99.90;;;;;;5515819;25;20721;-74
2024/04/11 00:47:09;;;;;;;0.30;0.20;;;14.70;99.90;;;;;;5513836;26;20485;-74
2024/04/11 00:49:40;;;;;;;1.10;0.90;;;14.70;99.90;;;;;;5515821;26;20558;-74
2024/04/11 00:52:07;;;;;;;0.40;0.30;;;14.70;99.90;;;;;;5515642;26;20503;-74
2024/04/11 00:54:34;;;;;;;0.50;0.50;;;14.70;99.90;;;;;;5513871;26;20986;-74
2024/04/11 00:57:01;;;;;;;0.30;0.20;;;14.70;99.90;;;;;;5515905;25;20441;-74
2024/04/11 00:59:27;;;;;;;0.30;0.30;;;14.70;99.90;;;;;;5513604;26;20437;-74
2024/04/11 01:01:53;;;;;;;0.30;0.20;;;14.70;99.90;;;;;;5516071;25;20484;-74
2024/04/11 01:04:19;;;;;;;0.30;0.20;;;14.60;99.90;;;;;;5513536;26;20840;-74
2024/04/11 01:07:08;;;;;;;1.70;1.60;;;14.60;99.90;;;;;;5515715;25;20668;-74
2024/04/11 01:09:44;;;;;;;0.30;0.20;;;14.60;99.90;;;;;;5513356;26;20437;-74
2024/04/11 01:12:14;;;;;;;0.87;0.87;;;14.60;99.90;;;;;;5513003;26;20482;-74
2024/04/11 01:14:48;;;;;;;0.30;0.20;;;14.60;99.90;;;;;;5515548;26;20989;-74
2024/04/11 01:17:16;;;;;;;1.43;1.33;;;14.50;99.90;;;;;;5514944;26;20653;-75
2024/04/11 01:19:47;;;;;;;0.40;0.40;;;14.60;99.90;;;;;;5515389;25;20441;-74
2024/04/11 01:22:18;;;;;;;1.07;1.03;;;14.50;99.90;;;;;;5514998;25;20823;-74
2024/04/11 01:24:44;;;;;;;0.30;0.20;;;14.50;99.90;;;;;;5515310;25;20429;-74
2024/04/11 01:27:12;;;;;;;0.30;0.20;;;14.50;99.90;;;;;;5515194;25;20550;-74
2024/04/11 01:29:38;;;;;;;0.30;0.20;;;14.50;99.90;;;;;;5515313;25;20262;-74
2024/04/11 01:32:08;;;;;;;0.30;0.20;;;14.40;99.90;;;;;;5514946;26;20421;-74
2024/04/11 01:34:34;;;;;;;0.33;0.20;;;14.30;99.90;;;;;;5515218;25;20763;-74
2024/04/11 01:37:00;;;;;;;0.30;0.30;;;14.30;99.90;;;;;;5515226;25;20433;-74
2024/04/11 01:39:26;;;;;;;0.30;0.20;;;14.30;99.90;;;;;;5513243;26;20988;-74
2024/04/11 01:41:51;;;;;;;2.00;1.03;;;14.30;99.90;;;;;;5515226;25;21057;-74
2024/04/11 01:44:17;;;;;;;1.00;0.70;;;14.30;99.90;;;;;;5514737;26;21292;-74
2024/04/11 01:46:43;;;;;;;0.83;0.83;;;14.30;99.90;;;;;;5513768;26;20223;-74
2024/04/11 01:49:09;;;;;;;0.30;0.20;;;14.30;99.90;;;;;;5512916;26;20244;-74
2024/04/11 01:51:35;;;;;;;0.77;0.77;;;14.30;99.90;;;;;;5515092;25;20216;-74
2024/04/11 01:54:05;;;;;;;0.30;0.20;;;14.30;99.90;;;;;;5514840;25;20941;-74
2024/04/11 01:56:33;;;;;;;1.07;1.07;;;14.20;99.90;;;;;;5515111;25;20492;-74
2024/04/11 01:58:59;;;;;;;1.07;0.70;;;14.20;99.90;;;;;;5514894;25;20491;-74
2024/04/11 02:01:25;;;;;;;0.70;0.70;;;14.10;99.90;;;;;;5514147;25;20444;-74
2024/04/11 02:03:53;;;;;;;0.30;0.20;;;14.20;99.90;;;;;;5514690;25;20232;-74
2024/04/11 02:06:19;;;;;;;1.50;1.40;;;14.10;99.90;;;;;;5514497;25;20441;-74
2024/04/11 02:08:46;;;;;;;0.30;0.20;;;14.10;99.90;;;;;;5512835;26;20507;-74
2024/04/11 02:11:12;;;;;;;0.30;0.20;;;14.10;99.90;;;;;;5511961;26;20433;-74
2024/04/11 02:13:38;;;;;;;0.30;0.20;;;14.10;99.90;;;;;;5512469;26;20856;-74
2024/04/11 02:16:04;;;;;;;0.30;0.20;;;14.10;99.90;;;;;;5514587;26;20331;-74
2024/04/11 02:18:29;;;;;;;0.30;0.20;;;14.00;99.90;;;;;;5512374;26;20236;-74
2024/04/11 02:20:55;;;;;;;2.87;2.33;;;14.00;99.90;;;;;;5514601;25;20998;-74
2024/04/11 02:23:21;;;;;;;0.60;0.60;;;14.00;99.90;;;;;;5512751;25;20290;-74
2024/04/11 02:25:47;;;;;;;0.53;0.53;;;14.00;99.90;;;;;;5514404;25;20216;-74
2024/04/11 02:28:13;;;;;;;0.30;0.20;;;14.00;99.90;;;;;;5514511;25;20557;-74
2024/04/11 02:30:39;;;;;;;0.40;0.20;;;13.90;99.90;;;;;;5514438;25;20484;-74
2024/04/11 02:33:05;;;;;;;0.70;0.70;;;13.90;99.90;;;;;;5514276;26;20871;-74
2024/04/11 02:35:32;;;;;;;2.10;1.63;;;14.00;99.90;;;;;;5514537;25;20437;-74
2024/04/11 02:37:58;;;;;;;1.20;0.80;;;13.90;99.90;;;;;;5512877;26;20235;-74
2024/04/11 02:40:23;;;;;;;0.77;0.77;;;13.90;99.90;;;;;;5513987;25;20493;-74
2024/04/11 02:42:49;;;;;;;0.77;0.73;;;13.90;99.90;;;;;;5512627;26;20456;-74
2024/04/11 02:45:15;;;;;;;0.30;0.20;;;13.90;99.90;;;;;;5514486;25;20235;-75
2024/04/11 02:47:44;;;;;;;0.50;0.47;;;13.90;99.90;;;;;;5514242;25;20693;-74
2024/04/11 02:50:15;;;;;;;0.30;0.20;;;13.90;99.90;;;;;;5513216;26;20255;-74
2024/04/11 02:52:43;;;;;;;0.67;0.67;;;13.90;99.90;;;;;;5514220;25;20448;-74
2024/04/11 02:55:12;;;;;;;0.47;0.47;;;13.90;99.90;;;;;;5514138;25;20500;-74
2024/04/11 02:57:38;;;;;;;0.30;0.20;;;13.90;99.90;;;;;;5514153;25;20831;-74
2024/04/11 03:00:05;;;;;;;0.40;0.30;;;13.80;99.90;;;;;;5514552;25;20539;-74
2024/04/11 03:02:33;;;;;;;1.70;1.20;;;13.80;99.90;;;;;;5513036;25;20255;-74
2024/04/11 03:05:00;;;;;;;1.60;0.97;;;13.80;99.90;;;;;;5514676;25;21049;-74
2024/04/11 03:07:27;;;;;;;1.43;1.33;;;13.80;99.90;;;;;;5511933;26;21103;-74
2024/04/11 03:09:53;;;;;;;0.80;0.63;;;13.90;99.90;;;;;;5512083;26;20831;-74
2024/04/11 03:12:20;;;;;;;0.30;0.20;;;14.00;99.90;;;;;;5511865;26;20501;-74
2024/04/11 03:14:46;;;;;;;0.30;0.30;;;14.10;99.90;;;;;;5513573;25;20449;-74
2024/04/11 03:17:12;;;;;;;0.77;0.77;;;14.20;99.90;;;;;;5513793;25;21032;-74
2024/04/11 03:19:39;;;;;;;0.77;0.77;;;14.20;99.90;;;;;;5491449;25;20457;-74
2024/04/11 03:22:05;;;;;;;0.83;0.77;;;14.30;99.90;;;;;;5476556;26;20486;-74
2024/04/11 03:24:32;;;;;;;0.30;0.20;;;14.30;99.90;;;;;;5475765;26;21237;-74
2024/04/11 03:27:00;;;;;;;0.60;0.60;;;14.30;99.90;;;;;;5475602;26;20468;-74
2024/04/11 03:29:27;;;;;;;0.90;0.70;;;14.30;99.90;;;;;;5476353;26;20438;-74
2024/04/11 03:31:54;;;;;;;0.30;0.20;;;14.30;99.90;;;;;;5476269;26;20438;-74
2024/04/11 03:34:23;;;;;;;0.70;0.67;;;14.30;99.90;;;;;;5475462;26;20944;-74
2024/04/11 03:36:49;;;;;;;0.60;0.60;;;14.40;99.90;;;;;;5477864;26;20445;-74
2024/04/11 03:39:15;;;;;;;2.30;1.23;;;14.40;99.90;;;;;;5475118;26;20588;-74
2024/04/11 03:41:44;;;;;;;0.87;0.87;;;14.50;99.90;;;;;;5477152;26;20482;-77
2024/04/11 03:44:11;;;;;;;0.40;0.30;;;14.60;99.90;;;;;;5477727;26;20450;-74
2024/04/11 03:46:37;;;;;;;0.50;0.50;;;14.60;99.90;;;;;;5477240;26;20605;-74
2024/04/11 03:49:04;;;;;;;0.30;0.20;;;14.60;99.90;;;;;;5477234;26;21077;-77
2024/04/11 03:51:34;;;;;;;3.50;1.87;;;14.70;99.90;;;;;;5475452;26;20225;-74
2024/04/11 03:54:03;;;;;;;0.30;0.30;;;14.70;99.90;;;;;;5478033;26;20454;-74
2024/04/11 03:56:29;;;;;;;0.80;0.80;;;14.70;99.90;;;;;;5478231;26;20442;-74
2024/04/11 03:58:56;;;;;;;3.37;1.03;;;14.70;99.90;;;;;;5478103;26;20843;-74
2024/04/11 04:01:23;;;;;;;1.93;1.83;;;14.70;99.90;;;;;;5477483;26;20513;-74
2024/04/11 04:03:53;;;;;;;0.53;0.53;;;14.70;99.90;;;;;;5477994;26;20521;-74
2024/04/11 04:06:19;;;;;;;1.03;1.03;;;14.70;99.90;;;;;;5479870;26;20923;-74
2024/04/11 04:08:48;;;;;;;0.50;0.50;;;14.70;99.90;;;;;;5479287;26;20920;-74
2024/04/11 04:11:18;;;;;;;0.30;0.20;;;14.70;99.90;;;;;;5477533;26;20497;-74
2024/04/11 04:13:44;;;;;;;2.80;2.57;;;14.80;99.90;;;;;;5478545;26;20458;-74
2024/04/11 04:16:11;;;;;;;0.63;0.63;;;14.80;99.90;;;;;;5478408;26;20489;-74
2024/04/11 04:18:41;;;;;;;0.50;0.50;;;14.80;99.90;;;;;;5478589;26;20229;-75
2024/04/11 04:21:07;;;;;;;0.50;0.50;;;14.80;99.90;;;;;;5478398;26;20779;-75
2024/04/11 04:23:34;;;;;;;1.70;1.60;;;14.80;99.90;;;;;;5478701;26;20549;-75
2024/04/11 04:26:04;;;;;;;1.53;1.47;;;14.80;99.90;;;;;;5510850;26;21176;-74
2024/04/11 04:28:40;;;;;;;7.43;2.97;;;14.80;99.90;;;;;;5513767;26;20457;-74
2024/04/11 04:31:21;;;;;;;0.73;0.73;;;14.80;99.90;;;;;;5515846;25;20432;-74
2024/04/11 04:33:54;;;;;;;1.30;1.27;;;14.80;99.90;;;;;;5478763;26;20506;-74
2024/04/11 04:36:25;;;;;;;0.40;0.40;;;14.90;99.90;;;;;;5478353;26;20422;-74
2024/04/11 04:38:53;;;;;;;0.40;0.40;;;14.90;99.90;;;;;;5478158;26;20470;-74
2024/04/11 04:41:20;;;;;;;0.50;0.50;;;14.90;99.90;;;;;;5477980;26;20494;-74
2024/04/11 04:43:53;;;;;;;0.50;0.50;;;14.90;99.90;;;;;;5478433;26;20462;-74
2024/04/11 04:46:20;;;;;;;0.30;0.30;;;15.00;99.90;;;;;;5476143;26;20453;-74
2024/04/11 04:48:46;;;;;;;0.30;0.20;;;15.10;99.90;;;;;;5477611;26;20462;-74
2024/04/11 04:51:11;;;;;;;1.70;1.60;;;15.20;99.90;;;;;;5478535;26;20492;-74
2024/04/11 04:53:38;;;;;;;0.30;0.30;;;15.20;99.90;;;;;;5477320;26;20672;-74
2024/04/11 04:56:09;;;;;;;0.30;0.20;;;15.20;99.90;;;;;;5475851;26;20224;-74
2024/04/11 04:58:41;;;;;;;0.50;0.50;;;15.20;99.90;;;;;;5473973;26;20563;-74
2024/04/11 05:01:08;;;;;;;0.40;0.30;;;15.30;99.90;;;;;;5473116;26;20496;-74
2024/04/11 05:03:34;;;;;;;2.13;1.90;;;15.30;99.90;;;;;;5472957;26;20462;-74
2024/04/11 05:06:03;;;;;;;0.30;0.30;;;15.40;99.90;;;;;;5476776;26;20437;-74
2024/04/11 05:08:32;;;;;;;1.00;1.00;;;15.40;99.90;;;;;;5474015;26;21183;-74
2024/04/11 05:10:58;;;;;;;0.90;0.90;;;15.40;99.90;;;;;;5473014;26;20780;-74
2024/04/11 05:13:29;;;;;;;0.70;0.70;;;15.40;99.90;;;;;;5475109;26;21030;-74
2024/04/11 05:16:06;;;;;;;0.60;0.60;;;15.50;99.90;;;;;;5475463;26;21030;-74
2024/04/11 05:18:38;;;;;;;0.97;0.90;;;15.60;99.90;;;;;;5477967;26;20465;-74
2024/04/11 05:21:26;;;;;;;1.17;1.07;;;15.60;99.90;;;;;;5478171;26;20774;-77
2024/04/11 05:23:54;;;;;;;0.30;0.27;;;15.70;99.90;;;;;;5476638;26;20583;-75
2024/04/11 05:26:23;;;;;;;0.50;0.47;;;15.80;99.90;;;;;;5474699;26;20478;-74
2024/04/11 05:28:51;;;;;;;0.30;0.20;;;15.90;99.90;;;;;;5474659;26;20502;-75
2024/04/11 05:31:18;;;;;;;0.30;0.20;;;16.00;99.90;;;;;;5475476;26;20822;-74
2024/04/11 05:33:47;;;;;;;0.80;0.63;;;16.10;99.90;;;;;;5472040;26;20562;-75
2024/04/11 05:36:17;;;;;;;1.13;1.13;;;16.10;99.90;;;;;;5471566;26;20838;-75
2024/04/11 05:38:44;;;;;;;1.80;1.63;;;16.20;99.90;;;;;;5472964;26;20792;-75
2024/04/11 05:41:11;;;;;;;1.53;1.43;;;16.40;99.90;;;;;;5490959;26;20748;-75
2024/04/11 05:43:43;;;;;;;0.50;0.50;;;16.50;99.90;;;;;;5468254;26;21349;-75
2024/04/11 05:46:18;;;;;;;0.40;0.40;;;16.60;99.90;;;;;;5469823;26;20477;-75
2024/04/11 05:48:47;;;;;;;0.30;0.20;;;16.80;99.90;;;;;;5466023;26;20741;-75
2024/04/11 05:51:14;;;;;;;0.67;0.60;;;16.80;99.90;;;;;;5467963;26;20441;-75
2024/04/11 05:53:41;;;;;;;0.30;0.20;;;16.90;99.90;;;;;;5466081;26;20470;-74
2024/04/11 05:56:09;;;;;;;0.53;0.53;;;17.00;99.90;;;;;;5467412;26;21192;-75
2024/04/11 05:58:40;;;;;;;1.93;1.23;;;17.00;99.90;;;;;;5467036;26;21153;-75
2024/04/11 06:01:08;;;;;;;3.50;0.70;;;17.10;99.90;;;;;;5470644;26;20442;-75
2024/04/11 06:03:38;;;;;;;0.40;0.30;;;17.10;99.90;;;;;;5477531;26;21141;-75
2024/04/11 06:06:03;;;;;;;0.30;0.30;;;17.10;99.90;;;;;;5488616;26;20474;-75
2024/04/11 06:08:29;;;;;;;0.30;0.20;;;17.20;99.90;;;;;;5485212;26;20571;-75
2024/04/11 06:10:56;;;;;;;0.40;0.37;;;17.30;99.90;;;;;;5480149;26;20213;-75
2024/04/11 06:13:22;;;;;;;0.30;0.27;;;17.30;99.90;;;;;;5487217;26;20464;-75
2024/04/11 06:15:47;;;;;;;0.60;0.60;;;17.30;99.90;;;;;;5475169;25;20589;-75
2024/04/11 06:18:15;;;;;;;0.30;0.20;;;17.40;99.90;;;;;;5478684;26;20282;-75
2024/04/11 06:20:41;;;;;;;0.30;0.20;;;17.40;99.90;;;;;;5493351;26;20235;-75
2024/04/11 06:23:15;;;;;;;1.03;0.87;;;17.50;99.90;;;;;;5491001;25;20796;-75
2024/04/11 06:25:42;;;;;;;0.97;0.97;;;17.50;99.90;;;;;;5504196;26;20496;-75
2024/04/11 06:28:11;;;;;;;1.13;0.63;;;17.60;99.90;;;;;;5502292;26;20558;-75
2024/04/11 06:30:38;;;;;;;0.60;0.60;;;17.60;99.90;;;;;;5501283;26;21327;-75
2024/04/11 06:33:08;;;;;;;0.40;0.40;;;17.60;99.90;;;;;;5501429;25;21601;-75
2024/04/11 06:35:35;;;;;;;0.67;0.67;;;17.60;99.90;;;;;;5485664;26;20454;-75
2024/04/11 06:38:04;;;;;;;0.77;0.77;;;17.70;99.90;;;;;;5504559;25;21279;-75
2024/04/11 06:40:32;;;;;;;0.50;0.47;;;17.70;99.90;;;;;;5495056;26;20999;-75
2024/04/11 06:42:59;;;;;;;0.30;0.20;;;17.80;99.90;;;;;;5479298;26;20491;-75
2024/04/11 06:45:25;;;;;;;0.77;0.70;;;17.90;99.90;;;;;;5471209;25;20503;-76
2024/04/11 06:47:52;;;;;;;9.60;1.50;;;18.00;99.90;;;;;;5472520;26;20796;-75
2024/04/11 06:50:20;;;;;;;0.33;0.20;;;18.00;99.90;;;;;;5499829;26;20787;-75
2024/04/11 06:52:47;;;;;;;1.03;0.80;;;18.10;99.90;;;;;;5506908;26;21143;-76
2024/04/11 06:55:14;;;;;;;0.30;0.30;;;18.20;99.90;;;;;;5499820;26;20546;-75
2024/04/11 06:57:44;;;;;;;0.60;0.60;;;18.20;99.90;;;;;;5475926;26;20775;-75
2024/04/11 07:00:35;;;;;;;0.30;0.20;;;18.30;99.90;;;;;;5470224;26;20601;-75
2024/04/11 07:03:13;;;;;;;0.40;0.33;;;18.30;99.90;;;;;;5472087;26;20475;-75
2024/04/11 07:05:57;;;;;;;0.40;0.33;;;18.40;99.90;;;;;;5469577;26;20505;-75
2024/04/11 07:08:31;;;;;;;0.30;0.20;;;18.50;99.90;;;;;;5472405;26;20585;-75
2024/04/11 07:11:20;;;;;;;0.30;0.20;;;18.50;99.90;;;;;;5500982;26;20456;-75
2024/04/11 07:13:50;;;;;;;0.30;0.30;;;18.60;99.90;;;;;;5497830;26;20530;-75
2024/04/11 07:16:17;;;;;;;0.30;0.20;;;18.60;99.90;;;;;;5498941;26;21302;-75
2024/04/11 07:18:49;;;;;;;1.03;0.90;;;18.70;99.90;;;;;;5476843;26;20460;-75
2024/04/11 07:21:19;;;;;;;0.40;0.30;;;18.80;99.90;;;;;;5475867;26;20454;-75
2024/04/11 07:23:53;;;;;;;0.30;0.30;;;18.80;99.90;;;;;;5481182;26;21122;-75
2024/04/11 07:26:22;;;;;;;0.30;0.20;;;18.90;99.90;;;;;;5482908;26;20449;-75
2024/04/11 07:28:48;;;;;;;1.33;1.20;;;19.00;99.90;;;;;;5480697;26;21058;-76
2024/04/11 07:31:17;;;;;;;0.30;0.20;;;19.00;99.90;;;;;;5479827;26;20457;-75
2024/04/11 07:33:48;;;;;;;0.40;0.30;;;19.10;99.90;;;;;;5476882;26;20524;-75
2024/04/11 07:36:14;;;;;;;0.60;0.60;;;19.10;99.90;;;;;;5495031;26;20473;-75
2024/04/11 07:38:40;;;;;;;0.40;0.30;;;19.20;99.90;;;;;;5476214;26;20627;-75
2024/04/11 07:41:20;;;;;;;0.50;0.50;;;19.30;99.90;;;;;;5491511;26;20917;-75
2024/04/11 07:43:52;;;;;;;0.60;0.60;;;19.30;99.90;;;;;;5484911;26;20509;-75
2024/04/11 07:46:29;;;;;;;0.30;0.30;;;19.50;99.90;;;;;;5470216;26;20508;-75
2024/04/11 07:48:56;;;;;;;0.30;0.20;;;19.50;99.90;;;;;;5492181;26;20763;-75
2024/04/11 07:51:23;;;;;;;0.83;0.47;;;19.60;99.90;;;;;;5488851;26;20464;-75
2024/04/11 07:53:49;;;;;;;0.60;0.60;;;19.70;99.90;;;;;;5471198;26;20497;-75
2024/04/11 07:56:20;;;;;;;0.70;0.70;;;19.70;99.90;;;;;;5484348;26;20504;-75
2024/04/11 07:58:51;;;;;;;0.77;0.77;;;19.70;99.70;;;;;;5498422;26;20521;-75
2024/04/11 08:01:16;;;;;;;0.40;0.37;;;19.80;99.70;;;;;;5486717;26;21016;-75
2024/04/11 08:03:45;;;;;;;0.80;0.63;;;19.80;99.60;;;;;;5491338;26;20463;-74
2024/04/11 08:06:11;;;;;;;0.30;0.20;;;19.80;99.60;;;;;;5488217;26;20243;-75
2024/04/11 08:08:37;;;;;;;0.50;0.40;;;19.90;99.50;;;;;;5502526;26;20882;-75
2024/04/11 08:11:06;;;;;;;0.30;0.20;;;19.90;99.40;;;;;;5503850;26;21029;-75
2024/04/11 08:13:33;;;;;;;0.30;0.20;;;20.00;99.30;;;;;;5488282;26;20520;-74
2024/04/11 08:15:59;;;;;;;0.30;0.20;;;20.10;99.00;;;;;;5479802;26;20568;-75
2024/04/11 08:18:27;;;;;;;0.43;0.43;;;20.10;99.00;;;;;;5498054;26;20450;-75
2024/04/11 08:20:54;;;;;;;0.30;0.20;;;20.10;99.10;;;;;;5497530;26;20224;-75
2024/04/11 08:23:22;;;;;;;0.83;0.83;;;20.20;99.00;;;;;;5488183;26;20476;-75
2024/04/11 08:25:52;;;;;;;0.40;0.30;;;20.20;98.80;;;;;;5487083;25;20452;-75
2024/04/11 08:28:18;;;;;;;0.57;0.53;;;20.30;98.70;;;;;;5508842;25;21008;-75
2024/04/11 08:30:47;;;;;;;0.47;0.47;;;20.40;98.70;;;;;;5490075;25;20536;-74
2024/04/11 08:33:14;;;;;;;1.23;1.13;;;20.50;98.50;;;;;;5485732;26;21029;-75
2024/04/11 08:35:44;;;;;;;1.73;1.10;;;20.60;98.40;;;;;;5489942;26;20987;-75
2024/04/11 08:38:15;;;;;;;0.50;0.50;;;20.70;98.10;;;;;;5476896;26;20530;-75
2024/04/11 08:40:44;;;;;;;1.00;0.90;;;20.80;98.00;;;;;;5494898;26;20672;-75
2024/04/11 08:43:15;;;;;;;0.30;0.30;;;20.90;97.60;;;;;;5480555;25;20453;-74
2024/04/11 08:45:44;;;;;;;0.80;0.80;;;20.90;97.80;;;;;;5496505;25;20516;-75
2024/04/11 08:48:11;;;;;;;1.07;0.63;;;21.30;97.60;;;;;;5484334;26;20458;-74
2024/04/11 08:50:46;;;;;;;0.47;0.40;;;21.90;96.90;;;;;;5485226;25;20456;-75
2024/04/11 08:53:16;;;;;;;2.50;1.80;;;22.60;95.90;;;;;;5503436;26;21003;-75
2024/04/11 08:55:42;;;;;;;2.60;0.83;;;23.00;95.50;;;;;;5476112;26;20537;-75
2024/04/11 08:58:08;;;;;;;0.30;0.20;;;23.00;95.00;;;;;;5477940;25;20923;-75
2024/04/11 09:00:39;;;;;;;2.63;0.57;;;23.10;94.60;;;;;;5504882;25;20980;-75
2024/04/11 09:03:10;;;;;;;0.63;0.63;;;23.20;95.20;;;;;;5470736;26;20808;-76
2024/04/11 09:05:36;;;;;;;0.30;0.20;;;23.40;95.10;;;;;;5474147;26;20511;-75
2024/04/11 09:08:01;;;;;;;1.27;1.07;;;23.50;94.90;;;;;;5470186;26;20468;-75
2024/04/11 09:10:28;;;;;;;1.43;1.33;;;23.50;94.50;;;;;;5473638;26;20738;-75
2024/04/11 09:12:54;;;;;;;0.33;0.27;;;23.50;94.80;;;;;;5469503;26;20233;-75
2024/04/11 09:15:20;;;;;;;0.40;0.40;;;23.50;95.00;;;;;;5486430;26;20461;-75
2024/04/11 09:17:55;;;;;;;0.70;0.70;;;23.50;94.90;;;;;;5490190;26;20604;-75
2024/04/11 09:20:24;;;;;;;0.80;0.80;;;23.50;94.60;;;;;;5500975;26;20491;-75
2024/04/11 09:22:59;;;;;;;0.30;0.30;;;23.50;94.50;;;;;;5497605;26;20447;-75
2024/04/11 09:25:34;;;;;;;0.83;0.83;;;23.50;94.40;;;;;;5489636;26;20654;-75
2024/04/11 09:28:00;;;;;;;0.30;0.20;;;23.40;94.40;;;;;;5480449;26;20776;-75
2024/04/11 09:30:34;;;;;;;0.80;0.80;;;23.50;94.60;;;;;;5495228;26;20448;-75
2024/04/11 09:33:09;;;;;;;0.60;0.60;;;23.40;94.50;;;;;;5490491;25;20821;-75
2024/04/11 09:35:41;;;;;;;5.40;1.80;;;23.40;94.10;;;;;;5473217;26;20809;-75
2024/04/11 09:38:14;;;;;;;0.50;0.50;;;23.40;94.50;;;;;;5483442;26;20895;-75
2024/04/11 09:40:44;;;;;;;0.30;0.20;;;23.40;94.10;;;;;;5472428;26;20452;-75
2024/04/11 09:43:15;;;;;;;0.50;0.50;;;23.40;94.80;;;;;;5479162;26;20457;-75
2024/04/11 09:45:49;;;;;;;1.37;1.27;;;23.40;94.60;;;;;;5497553;26;20518;-75
2024/04/11 09:48:16;;;;;;;0.73;0.73;;;23.30;94.40;;;;;;5476134;26;20459;-75
2024/04/11 09:50:44;;;;;;;2.63;1.50;;;23.30;94.40;;;;;;5475763;26;20432;-75
2024/04/11 09:53:14;;;;;;;2.10;0.77;;;23.30;94.40;;;;;;5478123;26;20460;-74
2024/04/11 09:55:40;;;;;;;0.30;0.20;;;23.40;94.50;;;;;;5479996;26;20514;-74
2024/04/11 09:58:06;;;;;;;0.30;0.20;;;23.40;94.60;;;;;;5488386;26;20458;-74
2024/04/11 10:03:22;;;;;;;0.70;0.70;;;23.40;94.40;;;;;;5500778;26;21049;-75
2024/04/11 10:05:50;;;;;;;1.63;1.30;;;23.50;94.50;;;;;;5506915;25;20439;-75
2024/04/11 10:08:33;;;;;;;0.30;0.20;;;23.50;94.60;;;;;;5508191;26;20515;-75
2024/04/11 10:11:10;;;;;;;0.40;0.40;;;23.50;94.30;;;;;;5470341;26;20504;-75
2024/04/11 10:13:40;;;;;;;0.30;0.20;;;23.60;94.50;;;;;;5467474;26;20541;-75
2024/04/11 10:16:21;;;;;;;0.50;0.50;;;23.60;94.50;;;;;;5476487;26;20449;-74
2024/04/11 10:19:04;;;;;;;0.53;0.53;;;23.60;94.50;;;;;;5470140;26;20890;-74
2024/04/11 10:21:35;;;;;;;0.30;0.20;;;23.70;94.30;;;;;;5500682;26;20459;-75
2024/04/11 10:24:14;;;;;;;0.50;0.50;;;23.70;94.20;;;;;;5498124;26;20982;-74
2024/04/11 10:26:43;;;;;;;0.40;0.40;;;23.70;93.60;;;;;;5477513;26;21302;-74
2024/04/11 10:29:18;;;;;;;0.40;0.40;;;23.50;93.30;;;;;;5479240;26;20523;-74
2024/04/11 10:31:44;;;;;;;0.53;0.53;;;23.40;93.50;;;;;;5490133;26;20847;-75
2024/04/11 10:34:19;;;;;;;0.40;0.30;;;23.40;93.70;;;;;;5500104;25;20446;-75
2024/04/11 10:36:53;;;;;;;0.30;0.30;;;23.40;93.60;;;;;;5480735;26;20528;-74
2024/04/11 10:39:19;;;;;;;2.10;1.23;;;23.50;93.90;;;;;;5499129;25;20460;-74
2024/04/11 10:41:47;;;;;;;0.70;0.70;;;23.60;93.90;;;;;;5505145;26;20658;-75
2024/04/11 10:44:13;;;;;;;0.53;0.53;;;23.60;93.20;;;;;;5505444;26;20463;-75
2024/04/11 10:46:40;;;;;;;1.07;1.07;;;23.70;94.00;;;;;;5483490;26;20440;-75
2024/04/11 10:49:26;;;;;;;0.63;0.63;;;23.70;93.80;;;;;;5479762;26;20675;-75
2024/04/11 10:51:51;;;;;;;0.83;0.83;;;23.80;93.80;;;;;;5466406;26;20452;-74
2024/04/11 10:54:17;;;;;;;0.67;0.67;;;23.70;93.10;;;;;;5477538;26;20570;-74
2024/04/11 10:56:44;;;;;;;0.30;0.20;;;23.80;93.40;;;;;;5493693;26;20231;-75
2024/04/11 10:59:22;;;;;;;0.30;0.30;;;23.80;93.70;;;;;;5494292;26;20246;-74
2024/04/11 11:02:00;;;;;;;0.33;0.30;;;23.90;93.80;;;;;;5485677;26;20900;-74
2024/04/11 11:04:29;;;;;;;0.33;0.30;;;24.00;93.70;;;;;;5475154;26;20441;-75
2024/04/11 11:06:59;;;;;;;0.50;0.40;;;24.10;93.70;;;;;;5480260;26;20509;-74
2024/04/11 11:09:27;;;;;;;0.33;0.30;;;24.10;93.70;;;;;;5476943;26;20456;-74
2024/04/11 11:11:54;;;;;;;0.50;0.50;;;24.20;93.60;;;;;;5485283;26;20513;-75
2024/04/11 11:14:24;;;;;;;2.03;1.90;;;24.20;93.40;;;;;;5482597;26;20553;-75
2024/04/11 11:16:57;;;;;;;0.67;0.67;;;24.20;93.40;;;;;;5487681;26;20444;-75
2024/04/11 11:19:24;;;;;;;0.97;0.70;;;24.20;93.10;;;;;;5478573;26;20514;-75
2024/04/11 11:21:50;;;;;;;0.40;0.40;;;24.20;92.80;;;;;;5477941;26;20626;-74
2024/04/11 11:24:26;;;;;;;1.77;1.40;;;24.20;93.00;;;;;;5475392;26;20453;-75
2024/04/11 11:26:56;;;;;;;0.30;0.20;;;24.20;92.70;;;;;;5485395;26;20468;-74
2024/04/11 11:29:27;;;;;;;0.40;0.40;;;24.20;92.30;;;;;;5474236;26;20570;-74
2024/04/11 11:32:01;;;;;;;0.93;0.87;;;24.10;92.50;;;;;;5492585;26;20809;-74
2024/04/11 11:34:35;;;;;;;0.40;0.40;;;24.20;93.20;;;;;;5484859;26;20464;-74
2024/04/11 11:37:01;;;;;;;0.30;0.20;;;24.20;92.80;;;;;;5498516;25;20994;-74
2024/04/11 11:39:36;;;;;;;0.60;0.57;;;24.30;92.90;;;;;;5495873;25;21320;-74
2024/04/11 11:42:08;;;;;;;0.30;0.20;;;24.30;92.30;;;;;;5486285;25;20465;-74
2024/04/11 11:47:33;;;;;;;1.17;0.97;;;24.40;92.40;;;;;;5485619;26;20526;-75
2024/04/11 11:50:19;;;;;;;0.50;0.50;;;24.40;92.30;;;;;;5486268;26;20533;-75
2024/04/11 11:52:55;;;;;;;0.30;0.30;;;24.50;92.60;;;;;;5470845;26;20485;-74
2024/04/11 11:55:25;;;;;;;0.40;0.40;;;24.50;92.80;;;;;;5483093;26;20520;-74
2024/04/11 11:58:02;;;;;;;0.40;0.40;;;24.50;92.40;;;;;;5487302;26;20516;-75
2024/04/11 12:00:32;;;;;;;0.57;0.57;;;24.50;92.30;;;;;;5479841;25;20884;-74
2024/04/11 12:03:11;;;;;;;0.93;0.50;;;24.50;92.60;;;;;;5485021;26;20518;-75
2024/04/11 12:05:39;;;;;;;0.47;0.47;;;24.50;91.80;;;;;;5507939;25;20447;-75
2024/04/11 12:08:06;;;;;;;1.10;1.00;;;24.60;91.70;;;;;;5474471;25;20819;-75
2024/04/11 12:13:42;;;;;;;1.60;1.20;;;24.60;92.30;;;;;;5485510;25;20532;-75
2024/04/11 12:16:08;;;;;;;0.40;0.37;;;24.60;91.70;;;;;;5487158;26;20513;-75
2024/04/11 12:18:34;;;;;;;0.30;0.20;;;24.70;92.10;;;;;;5475062;26;20458;-74
2024/04/11 12:21:02;;;;;;;0.30;0.20;;;24.70;91.90;;;;;;5489966;26;20833;-75
2024/04/11 12:23:28;;;;;;;0.47;0.47;;;24.80;91.90;;;;;;5478221;26;20495;-74
2024/04/11 12:25:58;;;;;;;0.30;0.20;;;24.90;92.10;;;;;;5486363;26;20480;-74
2024/04/11 12:28:25;;;;;;;0.57;0.57;;;24.90;91.30;;;;;;5481939;26;20959;-75
2024/04/11 12:30:59;;;;;;;0.70;0.70;;;24.90;91.70;;;;;;5478416;26;20911;-74
2024/04/11 12:33:31;;;;;;;1.80;1.63;;;25.00;92.20;;;;;;5468135;26;20468;-74
2024/04/11 12:35:59;;;;;;;1.17;0.70;;;25.00;91.90;;;;;;5470210;26;20438;-74
2024/04/11 12:38:30;;;;;;;0.50;0.50;;;25.00;91.30;;;;;;5475998;26;20449;-75
2024/04/11 12:40:58;;;;;;;0.30;0.20;;;25.10;91.70;;;;;;5485793;26;21010;-75
2024/04/11 12:43:25;;;;;;;0.30;0.20;;;25.10;92.00;;;;;;5470966;25;20458;-74
2024/04/11 12:45:52;;;;;;;0.40;0.40;;;25.20;92.10;;;;;;5492085;26;21154;-74
2024/04/11 12:48:20;;;;;;;0.40;0.37;;;25.20;91.10;;;;;;5497066;26;21169;-74
2024/04/11 12:50:54;;;;;;;0.67;0.40;;;25.20;91.10;;;;;;5478237;26;20441;-74
2024/04/11 12:53:25;;;;;;;0.30;0.30;;;25.20;91.20;;;;;;5510034;26;20483;-74
2024/04/11 12:55:58;;;;;;;0.33;0.30;;;25.20;90.90;;;;;;5504583;25;20440;-75
2024/04/11 12:58:25;;;;;;;1.03;0.50;;;25.20;91.00;;;;;;5475708;26;20466;-75
2024/04/11 13:01:02;;;;;;;0.30;0.30;;;24.80;90.50;;;;;;5473099;26;20836;-74
2024/04/11 13:06:22;;;;;;;0.40;0.40;;;24.60;90.70;;;;;;5497885;26;20464;-74
2024/04/11 13:08:48;;;;;;;0.97;0.90;;;24.60;90.60;;;;;;5483835;26;20530;-75